M I D A S
Marine Information and Data Acquisition System
Tripno 934 of the Zeeleeuw from 2005-08-24 05:00:00 to 2005-08-24 13:30:53
Back to CruiseResearch ActivitiesStationsMapUnderway DataData graphs

EquipmentUnitsComment
TimeDGPSUTC
LatitudeDGPSDM.mWGS84
LongitudeDGPSDM.mWGS84
HeadingGyrodeg 
SOGDGPSknotsSpeed over ground
COGDGPSdegCourse over ground
DepthEcho soundermeters200 kHz
Missing or incorrect values are displayed as -999
Navigation data collected by the RV Zeeleeuw from 2005-08-24 05:00:00 to 2005-08-24 13:34:21
Time Latitude Longitude Heading SOG COG Depth
2005-08-24 05:53:25 51°13.599 2°56.096 124.4 -999 123 -999
2005-08-24 05:54:25 51°13.595 2°56.1 124.3 -999 241 -999
2005-08-24 05:55:25 51°13.597 2°56.099 124.3 -999 291 -999
2005-08-24 05:56:25 51°13.597 2°56.099 124.3 -999 36 -999
2005-08-24 05:57:25 51°13.597 2°56.099 124.3 -999 217 -999
2005-08-24 05:58:25 51°13.597 2°56.098 124.2 0.1 146 -999
2005-08-24 05:59:24 51°13.599 2°56.099 124.2 0.1 93 -999
2005-08-24 06:00:24 51°13.599 2°56.098 124.2 -999 27 -999
2005-08-24 06:01:24 51°13.599 2°56.098 124.1 -999 186 -999
2005-08-24 06:02:24 51°13.598 2°56.097 124.1 -999 332 -999
2005-08-24 06:03:24 51°13.598 2°56.097 124.3 -999 107 -999
2005-08-24 06:04:26 51°13.598 2°56.096 124.3 0.1 134 -999
2005-08-24 06:05:24 51°13.599 2°56.096 124.4 0.1 8 7.8
2005-08-24 06:06:23 51°13.597 2°56.097 124.3 -999 162 5.8
2005-08-24 06:07:24 51°13.597 2°56.096 124.4 -999 85 5.8
2005-08-24 06:08:22 51°13.597 2°56.097 124.8 0.1 129 7.8
2005-08-24 06:09:24 51°13.596 2°56.097 124.8 0.1 305 5.7
2005-08-24 06:10:24 51°13.597 2°56.097 124.1 -999 203 -999
2005-08-24 06:11:23 51°13.597 2°56.096 124.1 0.1 292 5.7
2005-08-24 06:12:22 51°13.597 2°56.096 124.2 -999 329 7.7
2005-08-24 06:13:24 51°13.598 2°56.096 124.6 -999 350 7.7
2005-08-24 06:14:23 51°13.599 2°56.096 124.6 0.1 145 -999
2005-08-24 06:15:23 51°13.598 2°56.097 124.3 0.1 138 5.7
2005-08-24 06:16:24 51°13.597 2°56.096 124.6 0.1 129 5.7
2005-08-24 06:17:23 51°13.595 2°56.098 125.3 0.1 146 7.6
2005-08-24 06:18:22 51°13.596 2°56.097 124.8 0.1 111 7.6
2005-08-24 06:19:24 51°13.597 2°56.097 124.8 0.1 115 7.6
2005-08-24 06:20:22 51°13.597 2°56.098 125.3 0.2 130 7.6
2005-08-24 06:21:24 51°13.597 2°56.097 125.2 -999 32 7.5
2005-08-24 06:22:24 51°13.598 2°56.096 124.5 -999 129 5.6
2005-08-24 06:23:23 51°13.597 2°56.095 124.7 0.1 209 7.5
2005-08-24 06:24:23 51°13.597 2°56.097 124.8 0.1 185 7.5
2005-08-24 06:25:24 51°13.599 2°56.096 124.7 0.1 294 7.5
2005-08-24 06:26:23 51°13.601 2°56.096 124.8 -999 265 7.4
2005-08-24 06:27:23 51°13.6 2°56.096 124.8 0.1 157 7.4
2005-08-24 06:28:23 51°13.599 2°56.096 125 0.1 131 7.4
2005-08-24 06:29:24 51°13.599 2°56.097 125.9 0.1 137 5.5
2005-08-24 06:30:23 51°13.596 2°56.095 126.5 0.1 96 7.4
2005-08-24 06:31:23 51°13.596 2°56.095 126.5 0.1 139 7.4
2005-08-24 06:32:24 51°13.598 2°56.08 114.3 2.1 292 8.2
2005-08-24 06:33:25 51°13.63 2°55.975 121.3 5.1 297 -999
2005-08-24 06:34:24 51°13.669 2°55.861 114.3 4.5 294 -999
2005-08-24 06:35:25 51°13.683 2°55.763 93.1 3.4 275 -999
2005-08-24 06:36:22 51°13.693 2°55.749 41.8 1.9 29 14.2
2005-08-24 06:37:23 51°13.761 2°55.705 328.7 6.1 324 9.9
2005-08-24 06:38:24 51°13.884 2°55.595 339.2 9.4 334 10.6
2005-08-24 06:39:24 51°14.034 2°55.484 339.8 10.1 335 10.5
2005-08-24 06:40:24 51°14.193 2°55.353 333 11.2 330 10.5
2005-08-24 06:41:23 51°14.326 2°55.138 314.6 11.8 310 10.7
2005-08-24 06:42:24 51°14.458 2°54.877 325.3 12.6 321 11
2005-08-24 06:43:24 51°14.629 2°54.677 329.1 12.8 323 10.2
2005-08-24 06:44:23 51°14.801 2°54.48 329.9 13.2 325 9.8
2005-08-24 06:45:23 51°14.99 2°54.285 332 13.5 328 9.1
2005-08-24 06:46:23 51°15.186 2°54.103 332.8 13.6 328 9.4
2005-08-24 06:47:24 51°15.383 2°53.91 334.6 13.6 329 10.4
2005-08-24 06:48:22 51°15.566 2°53.729 333.6 13.5 328 11
2005-08-24 06:49:24 51°15.77 2°53.55 338.3 13.4 333 11.6
2005-08-24 06:50:24 51°15.974 2°53.393 340.2 13.7 335 12
2005-08-24 06:51:24 51°16.184 2°53.24 341.1 13.8 336 12.3
2005-08-24 06:52:24 51°16.394 2°53.093 340.8 13.7 336 12.4
2005-08-24 06:53:24 51°16.6 2°52.94 340.9 13.6 335 11.8
2005-08-24 06:54:22 51°16.798 2°52.798 340.2 13.5 335 10
2005-08-24 06:55:23 51°17.009 2°52.643 339.9 13.6 335 10.4
2005-08-24 06:56:22 51°17.209 2°52.494 339.7 13.6 335 10.3
2005-08-24 06:57:24 51°17.411 2°52.309 325.6 13.4 317 10.8
2005-08-24 06:58:23 51°17.546 2°52.028 307.7 13.6 303 10.8
2005-08-24 06:59:24 51°17.661 2°51.71 302.7 13.6 298 10.4
2005-08-24 07:00:24 51°17.77 2°51.392 302.5 13.7 298 10.5
2005-08-24 07:01:24 51°17.879 2°51.071 302 13.8 298 11.4
2005-08-24 07:02:23 51°17.981 2°50.753 299 13.7 296 12.8
2005-08-24 07:03:24 51°18.078 2°50.419 298.3 13.6 294 13.6
2005-08-24 07:04:24 51°18.173 2°50.091 298.3 13.6 295 14.3
2005-08-24 07:05:24 51°18.269 2°49.763 298.3 13.6 295 14
2005-08-24 07:06:23 51°18.363 2°49.441 298.6 13.6 295 11.8
2005-08-24 07:07:22 51°18.458 2°49.119 299.4 13.5 295 10.6
2005-08-24 07:08:23 51°18.555 2°48.786 298.1 13.7 294 11.2
2005-08-24 07:09:24 51°18.651 2°48.445 298.2 13.8 294 12.9
2005-08-24 07:10:24 51°18.744 2°48.112 298.1 13.7 294 14.6
2005-08-24 07:11:23 51°18.837 2°47.786 298.4 13.7 294 16.9
2005-08-24 07:12:24 51°18.933 2°47.451 298.5 13.6 295 18.7
2005-08-24 07:13:22 51°19.025 2°47.134 298.7 13.6 296 20.6
2005-08-24 07:14:24 51°19.122 2°46.794 297.9 13.7 295 21.3
2005-08-24 07:15:23 51°19.218 2°46.469 297.6 13.8 295 20.9
2005-08-24 07:16:24 51°19.32 2°46.134 298.2 13.7 296 18.9
2005-08-24 07:17:24 51°19.421 2°45.809 298.5 13.6 297 16.3
2005-08-24 07:18:23 51°19.515 2°45.486 298.6 13.6 296 13.1
2005-08-24 07:19:24 51°19.613 2°45.15 298.7 13.8 296 17.4
2005-08-24 07:20:22 51°19.706 2°44.832 298.9 13.6 296 21.8
2005-08-24 07:21:24 51°19.801 2°44.494 293.9 13.4 292 23.2
2005-08-24 07:22:24 51°19.882 2°44.161 293.6 13.4 291 24.6
2005-08-24 07:23:23 51°19.965 2°43.833 293.5 13.6 292 26.7
2005-08-24 07:24:24 51°20.051 2°43.49 294.3 13.7 292 26.5
2005-08-24 07:25:24 51°20.136 2°43.153 294.5 13.7 292 26.3
2005-08-24 07:26:24 51°20.225 2°42.816 294.5 13.7 293 24.8
2005-08-24 07:27:24 51°20.314 2°42.482 294 13.7 293 22.8
2005-08-24 07:28:23 51°20.403 2°42.156 293.6 13.6 293 17.1
2005-08-24 07:29:22 51°20.482 2°41.824 293.9 13.6 292 20
2005-08-24 07:30:24 51°20.571 2°41.472 295 13.7 292 21.9
2005-08-24 07:31:24 51°20.644 2°41.132 288.5 13.4 285 27.2
2005-08-24 07:32:24 51°20.692 2°40.78 284 13.6 281 26
2005-08-24 07:33:24 51°20.719 2°40.422 277.5 13.6 276 26.8
2005-08-24 07:34:24 51°20.737 2°40.064 275.6 13.5 274 26.9
2005-08-24 07:35:24 51°20.754 2°39.705 275.6 13.5 274 26
2005-08-24 07:36:23 51°20.771 2°39.35 275.8 13.6 274 25
2005-08-24 07:37:23 51°20.789 2°38.989 275.6 13.6 274 24.6
2005-08-24 07:38:23 51°20.805 2°38.63 276.5 13.6 274 24.2
2005-08-24 07:39:24 51°20.824 2°38.258 275.8 13.7 274 22.6
2005-08-24 07:40:23 51°20.841 2°37.901 276.4 13.7 275 23.9
2005-08-24 07:41:24 51°20.861 2°37.533 276.6 13.7 275 23.9
2005-08-24 07:42:24 51°20.88 2°37.168 276.3 13.8 275 23
2005-08-24 07:43:24 51°20.9 2°36.802 276.2 13.7 275 22.7
2005-08-24 07:44:24 51°20.92 2°36.439 275.7 13.8 274 24.3
2005-08-24 07:45:24 51°20.941 2°36.073 276 13.8 275 25.7
2005-08-24 07:46:24 51°20.961 2°35.707 275.9 13.8 275 29.5
2005-08-24 07:47:24 51°20.984 2°35.342 276.1 13.8 275 26.1
2005-08-24 07:48:24 51°21.006 2°34.974 275.4 13.9 275 31.3
2005-08-24 07:49:24 51°21.028 2°34.608 276.1 13.8 276 30.2
2005-08-24 07:50:23 51°21.048 2°34.251 275.7 13.6 275 30.2
2005-08-24 07:51:25 51°21.067 2°33.883 276.7 13.5 275 30.7
2005-08-24 07:52:24 51°21.086 2°33.53 276.8 13.5 275 31.7
2005-08-24 07:53:25 51°21.129 2°33.176 293.6 13.6 286 29.2
2005-08-24 07:54:24 51°21.321 2°33.033 2.3 13.5 356 27.3
2005-08-24 07:55:23 51°21.546 2°33.012 2.7 13.8 358 22.3
2005-08-24 07:56:24 51°21.782 2°32.988 1.8 14.1 357 21.9
2005-08-24 07:57:24 51°22.013 2°32.97 3.2 13.8 357 27.1
2005-08-24 07:58:24 51°22.237 2°32.947 2.9 13.4 356 30.6
2005-08-24 07:59:24 51°22.46 2°32.917 2 13.4 354 30.1
2005-08-24 08:00:24 51°22.68 2°32.891 3.3 13.3 356 30.1
2005-08-24 08:01:24 51°22.853 2°32.716 309.9 13.1 303 31.3
2005-08-24 08:02:24 51°22.878 2°32.359 275 13.9 272 30.1
2005-08-24 08:03:24 51°22.885 2°31.99 274.3 13.9 271 29.9
2005-08-24 08:04:23 51°22.886 2°31.628 273.8 13.9 270 27.3
2005-08-24 08:05:24 51°22.887 2°31.254 272.7 13.8 270 25.8
2005-08-24 08:06:24 51°22.881 2°30.885 272 13.9 268 27.5
2005-08-24 08:07:24 51°22.869 2°30.518 269.8 13.6 266 29.8
2005-08-24 08:08:24 51°22.86 2°30.152 271.1 13.9 268 31.8
2005-08-24 08:09:24 51°22.848 2°29.782 270.3 13.9 267 32
2005-08-24 08:10:24 51°22.835 2°29.413 268.2 13.9 266 32.2
2005-08-24 08:11:24 51°22.818 2°29.045 267.8 14 267 33.4
2005-08-24 08:12:22 51°22.803 2°28.692 267.9 13.9 266 32.6
2005-08-24 08:13:24 51°22.788 2°28.309 268.9 13.8 266 33.3
2005-08-24 08:14:22 51°22.773 2°27.96 267.1 13.7 265 33.6
2005-08-24 08:15:23 51°22.752 2°27.589 267.8 13.7 267 33.8
2005-08-24 08:16:22 51°22.732 2°27.239 268.2 13.5 264 33.1
2005-08-24 08:17:24 51°22.712 2°26.858 268.1 13.8 265 32.1
2005-08-24 08:18:23 51°22.694 2°26.498 268.2 13.8 266 31.4
2005-08-24 08:19:24 51°22.676 2°26.127 268.5 13.7 266 28.1
2005-08-24 08:20:23 51°22.745 2°25.788 305.5 13.9 298 18.4
2005-08-24 08:21:24 51°22.915 2°25.533 336.8 13.9 328 23.5
2005-08-24 08:22:23 51°23.137 2°25.47 1.4 13.9 352 29.5
2005-08-24 08:23:24 51°23.364 2°25.46 7.9 13.2 1 31.8
2005-08-24 08:24:24 51°23.583 2°25.5 16 13.5 8 32.2
2005-08-24 08:25:23 51°23.8 2°25.554 14.5 13.5 7 32.9
2005-08-24 08:26:24 51°24.024 2°25.606 17.2 13.2 9 32.6
2005-08-24 08:27:24 51°24.239 2°25.669 19.5 13.2 10 32.6
2005-08-24 08:28:23 51°24.455 2°25.717 16.8 13.6 9 33.3
2005-08-24 08:29:24 51°24.682 2°25.78 21.4 13.5 14 33.9
2005-08-24 08:30:24 51°24.901 2°25.843 17.4 13.9 8 33
2005-08-24 08:31:23 51°25.118 2°25.893 19 13.2 10 32.8
2005-08-24 08:32:24 51°25.34 2°25.958 17.3 13.4 9 32.1
2005-08-24 08:33:24 51°25.559 2°26.01 15.3 13.5 7 32.9
2005-08-24 08:34:23 51°25.772 2°26.067 18.5 13.1 11 34.1
2005-08-24 08:35:24 51°25.99 2°26.132 18.9 13.1 13 31.6
2005-08-24 08:36:23 51°26.204 2°26.196 17.7 13.6 6 30.2
2005-08-24 08:37:24 51°26.429 2°26.251 15.9 13.6 7 25.2
2005-08-24 08:38:25 51°26.647 2°26.314 20.9 13.4 14 23
2005-08-24 08:39:24 51°26.864 2°26.377 20.7 13 12 21.6
2005-08-24 08:40:23 51°27.08 2°26.445 18.8 13.5 11 24.3
2005-08-24 08:41:23 51°27.296 2°26.511 18.7 13 10 25.5
2005-08-24 08:42:24 51°27.513 2°26.585 18.2 13.3 14 29.9
2005-08-24 08:43:24 51°27.73 2°26.657 16.5 13.3 17 30.6
2005-08-24 08:44:24 51°27.946 2°26.729 16.6 13.2 9 27.3
2005-08-24 08:45:25 51°28.162 2°26.801 16 13.3 10 32.8
2005-08-24 08:46:24 51°28.376 2°26.862 16.6 13.3 13 31.3
2005-08-24 08:47:23 51°28.586 2°26.93 16.7 13 8 33
2005-08-24 08:48:23 51°28.794 2°26.916 345.6 12.9 340 33.4
2005-08-24 08:49:24 51°28.943 2°26.648 304.8 13.5 300 33.5
2005-08-24 08:50:24 51°29.028 2°26.314 292.5 13.7 288 34.3
2005-08-24 08:51:24 51°29.091 2°25.968 289.7 13.5 287 31.9
2005-08-24 08:52:24 51°29.156 2°25.622 290.3 13.5 286 26.4
2005-08-24 08:53:24 51°29.214 2°25.275 288.1 13.4 284 27.4
2005-08-24 08:54:24 51°29.271 2°24.929 288.1 13.4 286 25.3
2005-08-24 08:55:25 51°29.329 2°24.575 288.4 13.7 284 26.5
2005-08-24 08:56:24 51°29.385 2°24.227 289.4 13.6 286 32.9
2005-08-24 08:57:25 51°29.509 2°23.931 319.9 13.5 311 35.2
2005-08-24 08:58:24 51°29.699 2°23.778 353 13 345 39
2005-08-24 08:59:23 51°29.893 2°23.86 38.4 12.2 33 38.3
2005-08-24 09:00:24 51°30.07 2°24.048 39.9 12.7 34 39.2
2005-08-24 09:01:25 51°30.243 2°24.233 36.1 12.4 32 38.5
2005-08-24 09:02:25 51°30.421 2°24.41 39.1 12.7 33 38.6
2005-08-24 09:03:24 51°30.604 2°24.582 36.4 12.8 29 38.2
2005-08-24 09:04:24 51°30.788 2°24.756 36.8 12.7 32 36.6
2005-08-24 09:05:25 51°30.971 2°24.925 36.4 12.7 31 37.3
2005-08-24 09:06:23 51°31.145 2°25.086 35.5 12.8 29 39.5
2005-08-24 09:07:22 51°31.323 2°25.249 35.2 12.5 30 39
2005-08-24 09:08:22 51°31.5 2°25.42 35.4 12.1 32 37.1
2005-08-24 09:09:23 51°31.681 2°25.607 38.5 12.6 30 36.2
2005-08-24 09:10:24 51°31.865 2°25.787 38.3 12.8 35 38
2005-08-24 09:11:22 51°32.04 2°25.947 39.6 12.7 33 36.1
2005-08-24 09:12:24 51°32.217 2°26.14 37.8 11.9 32 36.6
2005-08-24 09:13:25 51°32.387 2°26.337 43 12.4 36 37.5
2005-08-24 09:14:24 51°32.554 2°26.526 41.2 12.1 33 34.8
2005-08-24 09:15:25 51°32.724 2°26.729 41.8 12.9 35 36.4
2005-08-24 09:16:24 51°32.889 2°26.929 41.3 12.1 35 36.4
2005-08-24 09:17:24 51°33.052 2°27.128 42 12.3 37 36.3
2005-08-24 09:18:25 51°33.223 2°27.315 39.2 12.7 32 35.4
2005-08-24 09:19:23 51°33.393 2°27.489 38.4 12.4 31 36.3
2005-08-24 09:20:24 51°33.571 2°27.682 38 12.4 32 34.2
2005-08-24 09:21:24 51°33.745 2°27.874 38.9 12.8 33 37.2
2005-08-24 09:22:24 51°33.921 2°28.052 36.1 12.1 30 34.8
2005-08-24 09:23:24 51°34.095 2°28.23 39.3 12.5 33 35.1
2005-08-24 09:24:24 51°34.271 2°28.404 36 12.3 26 32.6
2005-08-24 09:25:24 51°34.44 2°28.586 41.1 12.5 37 34
2005-08-24 09:26:24 51°34.608 2°28.766 39.4 12.2 34 32.6
2005-08-24 09:27:24 51°34.783 2°28.943 37.3 12.4 33 31.4
2005-08-24 09:28:22 51°34.957 2°29.11 37.7 12.6 30 35
2005-08-24 09:29:25 51°35.139 2°29.299 40.7 12.3 36 33.1
2005-08-24 09:30:24 51°35.315 2°29.478 37.7 12.9 34 36.3
2005-08-24 09:31:25 51°35.484 2°29.667 40.6 12.1 34 33.7
2005-08-24 09:32:24 51°35.655 2°29.846 38.3 12.5 32 35.3
2005-08-24 09:33:24 51°35.831 2°30.028 36.8 12.3 30 34.6
2005-08-24 09:34:24 51°36.007 2°30.203 39.2 12.7 34 34
2005-08-24 09:35:24 51°36.179 2°30.382 36.2 12.5 32 35.3
2005-08-24 09:36:24 51°36.349 2°30.564 38.5 12.2 31 34.8
2005-08-24 09:37:24 51°36.52 2°30.745 34.7 12.1 29 35.2
2005-08-24 09:38:24 51°36.696 2°30.917 34.2 12.7 33 36
2005-08-24 09:39:24 51°36.876 2°31.09 34.9 12.3 28 37.1
2005-08-24 09:40:24 51°37.054 2°31.271 39.7 12.8 34 37.7
2005-08-24 09:41:24 51°37.23 2°31.449 36.4 12.5 35 38.5
2005-08-24 09:42:25 51°37.405 2°31.628 36.9 12.4 33 39.2
2005-08-24 09:43:24 51°37.578 2°31.796 36.3 12.1 34 38.7
2005-08-24 09:44:24 51°37.755 2°31.964 38.2 12.4 29 38.5
2005-08-24 09:45:24 51°37.925 2°32.133 35.1 11.8 33 39.3
2005-08-24 09:46:24 51°38.093 2°32.302 33.9 11.8 34 40
2005-08-24 09:47:25 51°38.268 2°32.477 38.1 12.5 34 40.3
2005-08-24 09:48:24 51°38.442 2°32.652 33.5 12.2 30 41.9
2005-08-24 09:49:24 51°38.622 2°32.82 37.7 12.3 34 41.2
2005-08-24 09:50:24 51°38.792 2°32.991 36.3 11.9 33 41.3
2005-08-24 09:51:24 51°38.964 2°33.166 37.6 12.3 31 41.1
2005-08-24 09:52:24 51°39.137 2°33.336 38.1 12.6 32 40.8
2005-08-24 09:53:25 51°39.306 2°33.505 36.9 11.8 35 39.1
2005-08-24 09:54:24 51°39.477 2°33.675 36.3 12.2 34 39.4
2005-08-24 09:55:25 51°39.648 2°33.842 39.5 11.9 36 37.3
2005-08-24 09:56:24 51°39.818 2°34.015 35.3 11.9 31 40.1
2005-08-24 09:57:24 51°39.985 2°34.188 40.5 12.1 36 37.6
2005-08-24 09:58:24 51°40.152 2°34.355 35.8 11.6 30 37.2
2005-08-24 09:59:22 51°40.311 2°34.515 40.1 11.9 36 37.8
2005-08-24 10:00:23 51°40.485 2°34.684 34.7 11.6 31 34.7
2005-08-24 10:01:22 51°40.65 2°34.846 35.1 11.9 31 33.5
2005-08-24 10:02:24 51°40.829 2°35.024 38.8 12.2 38 32.2
2005-08-24 10:03:24 51°41.002 2°35.19 33.4 12.1 27 33.3
2005-08-24 10:04:24 51°41.17 2°35.353 36.9 11.2 37 29.1
2005-08-24 10:05:25 51°41.273 2°35.617 79.5 11.8 82 32.9
2005-08-24 10:06:22 51°41.229 2°35.91 112.7 12.4 119 24.2
2005-08-24 10:07:24 51°41.137 2°36.22 113.8 12.3 118 18.9
2005-08-24 10:08:25 51°41.049 2°36.523 112.5 12.3 115 25.2
2005-08-24 10:09:24 51°40.961 2°36.826 114.5 12.9 121 31.9
2005-08-24 10:10:25 51°40.863 2°37.134 114.4 12.8 115 35.2
2005-08-24 10:11:24 51°40.765 2°37.436 116.2 12.9 118 37.9
2005-08-24 10:12:23 51°40.669 2°37.735 113.2 12.9 116 37.7
2005-08-24 10:13:25 51°40.56 2°38.044 114.9 13 116 39.8
2005-08-24 10:14:23 51°40.462 2°38.337 116.3 12.6 114 39.2
2005-08-24 10:15:25 51°40.355 2°38.641 117.5 12.8 121 41.9
2005-08-24 10:16:24 51°40.254 2°38.939 119.1 12.6 118 41.7
2005-08-24 10:17:25 51°40.146 2°39.24 117.1 13 122 42.1
2005-08-24 10:18:24 51°40.044 2°39.536 118.3 12.6 120 41.2
2005-08-24 10:19:24 51°39.938 2°39.835 118.2 12.9 121 39.1
2005-08-24 10:20:24 51°39.834 2°40.129 118.4 12.6 119 35.8
2005-08-24 10:21:23 51°39.728 2°40.425 118.2 13 123 28.2
2005-08-24 10:22:24 51°39.624 2°40.73 115.5 12.5 117 31
2005-08-24 10:23:24 51°39.52 2°41.022 117 12.5 118 31.4
2005-08-24 10:24:25 51°39.412 2°41.314 115.9 12.3 126 24.8
2005-08-24 10:25:23 51°39.316 2°41.6 117.3 12.7 123 25.9
2005-08-24 10:26:25 51°39.213 2°41.903 115.6 12.4 116 24.6
2005-08-24 10:27:24 51°39.03 2°42.069 167.1 13.4 169 24.8
2005-08-24 10:28:24 51°38.802 2°42.082 179 13.8 178 26.9
2005-08-24 10:29:24 51°38.573 2°42.085 179.5 13.8 180 28.8
2005-08-24 10:30:24 51°38.34 2°42.086 179.5 14.1 181 29.2
2005-08-24 10:31:24 51°38.107 2°42.085 180 13.9 179 31.7
2005-08-24 10:32:24 51°37.874 2°42.084 180.5 14 181 31.6
2005-08-24 10:33:23 51°37.648 2°42.085 179.8 13.9 181 32.1
2005-08-24 10:34:22 51°37.424 2°42.037 199.5 14.1 198 33.9
2005-08-24 10:35:24 51°37.247 2°41.773 242.3 14.2 239 31.3
2005-08-24 10:36:25 51°37.208 2°41.414 280.7 13.7 272 15.7
2005-08-24 10:37:23 51°37.246 2°41.056 291.5 14 282 20.3
2005-08-24 10:38:24 51°37.29 2°40.685 289 13.9 280 21.4
2005-08-24 10:39:24 51°37.329 2°40.316 287.5 14.1 278 25.8
2005-08-24 10:40:24 51°37.365 2°39.956 286.8 13.5 281 32
2005-08-24 10:41:24 51°37.395 2°39.591 285.5 13.9 277 35.7
2005-08-24 10:42:24 51°37.425 2°39.226 286.5 13.8 278 38.7
2005-08-24 10:43:23 51°37.452 2°38.876 285.2 13.6 276 40.8
2005-08-24 10:44:25 51°37.476 2°38.502 284.9 13.6 277 38.6
2005-08-24 10:45:25 51°37.5 2°38.144 285.9 13.5 276 37.5
2005-08-24 10:46:23 51°37.523 2°37.796 284.2 13.5 273 37.9
2005-08-24 10:47:24 51°37.549 2°37.434 285.2 13.3 276 36.3
2005-08-24 10:48:24 51°37.57 2°37.076 285.6 13.5 276 40.7
2005-08-24 10:49:25 51°37.592 2°36.711 284.9 13.7 275 39.5
2005-08-24 10:50:25 51°37.615 2°36.351 285.3 13.7 277 38.7
2005-08-24 10:51:23 51°37.642 2°36.012 285.9 13.1 276 37.8
2005-08-24 10:52:24 51°37.664 2°35.646 285.2 13.6 274 36.9
2005-08-24 10:53:24 51°37.688 2°35.289 284.5 13.4 277 34.9
2005-08-24 10:54:24 51°37.716 2°34.932 286.2 13.4 277 25.8
2005-08-24 10:55:23 51°37.743 2°34.571 286.7 14 278 17
2005-08-24 10:56:25 51°37.752 2°34.189 269.6 13.9 262 27.8
2005-08-24 10:57:24 51°37.623 2°33.891 228.8 13.9 225 32.1
2005-08-24 10:58:24 51°37.419 2°33.735 198.8 13.7 198 34
2005-08-24 10:59:25 51°37.198 2°33.626 196.2 14 196 34.4
2005-08-24 11:00:24 51°36.977 2°33.517 197.5 13.8 197 33.4
2005-08-24 11:01:24 51°36.756 2°33.408 197.8 13.8 196 33.6
2005-08-24 11:02:24 51°36.536 2°33.302 197.6 13.6 195 34.7
2005-08-24 11:03:24 51°36.319 2°33.195 198.8 13.8 198 35.1
2005-08-24 11:04:25 51°36.097 2°33.085 198.6 13.9 197 35.1
2005-08-24 11:05:25 51°35.879 2°32.976 198 13.9 198 36.3
2005-08-24 11:06:24 51°35.665 2°32.868 197.7 13.7 197 36.4
2005-08-24 11:07:24 51°35.448 2°32.757 198.4 13.8 198 36.5
2005-08-24 11:08:24 51°35.225 2°32.639 198.9 14.2 198 36
2005-08-24 11:09:25 51°35.004 2°32.525 198.3 14.1 199 35.4
2005-08-24 11:10:24 51°34.786 2°32.412 198.2 13.6 198 33.6
2005-08-24 11:11:24 51°34.567 2°32.297 198.7 13.8 198 31.2
2005-08-24 11:12:25 51°34.345 2°32.175 197.9 14.2 199 30
2005-08-24 11:13:24 51°34.126 2°32.058 198 13.9 198 27.5
2005-08-24 11:14:25 51°33.906 2°31.941 197.3 13.5 199 27.4
2005-08-24 11:15:24 51°33.687 2°31.82 199.4 14.1 199 24.7
2005-08-24 11:16:25 51°33.466 2°31.699 198.8 13.8 199 25.6
2005-08-24 11:17:24 51°33.252 2°31.589 197.5 13.8 198 24.9
2005-08-24 11:18:24 51°33.031 2°31.468 198.7 14.3 199 26.8
2005-08-24 11:19:24 51°32.814 2°31.358 197.9 13.5 197 23.1
2005-08-24 11:20:25 51°32.59 2°31.236 197.7 13.9 198 24.2
2005-08-24 11:21:24 51°32.369 2°31.114 198.3 14.3 199 25.5
2005-08-24 11:22:25 51°32.145 2°30.991 198.2 14.3 198 26.6
2005-08-24 11:23:24 51°31.924 2°30.924 174.1 13.2 176 25.6
2005-08-24 11:24:25 51°31.708 2°31.039 153.4 13.3 156 31.3
2005-08-24 11:25:24 51°31.518 2°31.211 145.5 13.5 152 33.9
2005-08-24 11:26:24 51°31.326 2°31.389 147.3 13.4 151 31.4
2005-08-24 11:27:25 51°31.135 2°31.573 143.7 13.2 148 35.1
2005-08-24 11:28:25 51°30.953 2°31.758 144 13.1 152 34.5
2005-08-24 11:29:24 51°30.775 2°31.953 140.9 12.8 144 34.2
2005-08-24 11:30:25 51°30.597 2°32.158 140.7 13.2 146 34
2005-08-24 11:31:25 51°30.419 2°32.359 140.6 13.1 143 29.5
2005-08-24 11:32:24 51°30.245 2°32.559 141.3 13 145 27.3
2005-08-24 11:33:24 51°30.068 2°32.758 140.8 13.1 144 23.6
2005-08-24 11:34:24 51°29.897 2°32.96 136.4 12.4 136 21
2005-08-24 11:35:25 51°29.814 2°33.256 97.6 11.5 101 20.3
2005-08-24 11:36:24 51°29.798 2°33.562 90.3 11.8 94 17.7
2005-08-24 11:37:25 51°29.784 2°33.871 93.2 11.7 96 17.3
2005-08-24 11:38:24 51°29.766 2°34.18 90.5 12.4 95 32.8
2005-08-24 11:39:25 51°29.744 2°34.505 90.2 12.2 100 36.2
2005-08-24 11:40:24 51°29.719 2°34.823 95.7 12.7 98 37.6
2005-08-24 11:41:24 51°29.698 2°35.141 91.9 11.6 87 37.6
2005-08-24 11:42:25 51°29.687 2°35.466 88.7 12.1 91 37.9
2005-08-24 11:43:25 51°29.677 2°35.793 90.3 12.2 90 34.2
2005-08-24 11:44:24 51°29.669 2°36.112 89.9 12.6 95 31.6
2005-08-24 11:45:24 51°29.664 2°36.433 91.4 11.9 95 30.8
2005-08-24 11:46:25 51°29.655 2°36.749 92.1 11.2 91 27.8
2005-08-24 11:47:24 51°29.64 2°37.055 87.5 11.6 96 25.3
2005-08-24 11:48:24 51°29.63 2°37.362 88.7 11.8 93 30.9
2005-08-24 11:49:24 51°29.611 2°37.676 90.3 11.7 95 37.1
2005-08-24 11:50:25 51°29.593 2°37.996 91.6 12.2 95 37.2
2005-08-24 11:51:24 51°29.483 2°38.262 129.4 13.1 136 37.1
2005-08-24 11:52:24 51°29.276 2°38.369 166.8 13.6 173 35.7
2005-08-24 11:53:25 51°29.048 2°38.427 165.2 13.8 169 35.9
2005-08-24 11:54:24 51°28.83 2°38.517 160.2 13.6 162 37
2005-08-24 11:55:25 51°28.61 2°38.616 160.4 13.7 163 38.7
2005-08-24 11:56:24 51°28.392 2°38.71 161.8 13.7 166 37.9
2005-08-24 11:57:24 51°28.174 2°38.811 160.5 13.5 163 36.1
2005-08-24 11:58:25 51°27.952 2°38.91 160.8 13.6 166 33.6
2005-08-24 11:59:25 51°27.733 2°38.999 161.8 13.8 168 35
2005-08-24 12:00:25 51°27.513 2°39.092 160.8 13.7 162 33.4
2005-08-24 12:01:25 51°27.295 2°39.188 161.5 13.8 163 34.9
2005-08-24 12:02:25 51°27.075 2°39.273 163.4 13.7 167 33.9
2005-08-24 12:03:24 51°26.857 2°39.354 164 13.6 169 32.5
2005-08-24 12:04:25 51°26.634 2°39.437 163.3 13.6 167 32.7
2005-08-24 12:05:22 51°26.424 2°39.519 164.3 13.4 168 32.5
2005-08-24 12:06:25 51°26.194 2°39.614 163.3 13.7 171 32.6
2005-08-24 12:07:25 51°25.967 2°39.639 177.1 13.8 181 31.5
2005-08-24 12:08:24 51°25.746 2°39.647 174.4 13.4 180 31.1
2005-08-24 12:09:25 51°25.521 2°39.652 174.6 13.3 180 30.2
2005-08-24 12:10:24 51°25.302 2°39.659 176 13.5 179 29.2
2005-08-24 12:11:25 51°25.07 2°39.665 175.6 13.7 178 27.2
2005-08-24 12:12:25 51°24.845 2°39.681 175.4 13.6 177 27.6
2005-08-24 12:13:22 51°24.633 2°39.725 167 13.5 169 26
2005-08-24 12:14:24 51°24.407 2°39.81 165 13.6 168 26
2005-08-24 12:15:23 51°24.192 2°39.882 166.2 13.4 168 26.7
2005-08-24 12:16:25 51°23.961 2°39.951 167.6 13.6 170 28.1
2005-08-24 12:17:23 51°23.746 2°40.013 167.6 13.6 171 28.2
2005-08-24 12:18:25 51°23.516 2°40.078 166.6 13.5 168 30
2005-08-24 12:19:25 51°23.293 2°40.142 167.6 13.5 171 30.1
2005-08-24 12:20:25 51°23.073 2°40.207 166.9 13.3 165 29.8
2005-08-24 12:21:25 51°22.855 2°40.265 167.4 13.3 171 29.4
2005-08-24 12:22:25 51°22.639 2°40.323 166.7 13.2 168 30.4
2005-08-24 12:23:25 51°22.422 2°40.379 167.9 13.2 172 28.9
2005-08-24 12:24:25 51°22.206 2°40.436 166.9 13.4 169 28.8
2005-08-24 12:25:25 51°21.989 2°40.496 168.3 13.2 172 28.5
2005-08-24 12:26:25 51°21.773 2°40.555 167.3 13.3 169 27.6
2005-08-24 12:27:23 51°21.558 2°40.615 167 13.5 170 28.5
2005-08-24 12:28:25 51°21.335 2°40.68 167 13.3 170 26.6
2005-08-24 12:29:25 51°21.115 2°40.746 168 13.4 172 26.2
2005-08-24 12:30:24 51°20.903 2°40.823 161.1 13.3 167 27.1
2005-08-24 12:31:25 51°20.723 2°41.025 133.3 12.8 137 27
2005-08-24 12:32:24 51°20.604 2°41.3 119.6 13.2 125 26.8
2005-08-24 12:33:24 51°20.498 2°41.595 120.7 12.9 124 20.8
2005-08-24 12:34:25 51°20.39 2°41.892 116 12.8 125 19.8
2005-08-24 12:35:25 51°20.285 2°42.183 118.3 13.2 117 19.1
2005-08-24 12:36:25 51°20.185 2°42.483 116.9 12.5 112 23.2
2005-08-24 12:37:25 51°20.104 2°42.786 109.1 12.8 108 25.7
2005-08-24 12:38:25 51°20.03 2°43.099 111 12.3 105 26.5
2005-08-24 12:39:25 51°19.951 2°43.403 111.9 12.5 110 27
2005-08-24 12:40:25 51°19.87 2°43.706 112.2 12.4 112 25.4
2005-08-24 12:41:25 51°19.792 2°44.017 110.5 12.8 110 24.8
2005-08-24 12:42:24 51°19.716 2°44.318 110.4 12.8 110 24
2005-08-24 12:43:24 51°19.629 2°44.629 112.4 12.8 111 22.3
2005-08-24 12:44:25 51°19.542 2°44.947 114.4 12.7 113 21.1
2005-08-24 12:45:24 51°19.46 2°45.253 112.1 12.5 109 11.1
2005-08-24 12:46:24 51°19.375 2°45.561 113.6 12.7 114 14.4
2005-08-24 12:47:25 51°19.284 2°45.875 113.4 13 114 17.4
2005-08-24 12:48:25 51°19.197 2°46.182 111.9 12.4 114 20.5
2005-08-24 12:49:25 51°19.108 2°46.484 116.8 12.4 116 21.7
2005-08-24 12:50:25 51°19.017 2°46.787 114.6 12.6 118 21.5
2005-08-24 12:51:25 51°18.929 2°47.091 112.1 12.6 115 20.7
2005-08-24 12:52:25 51°18.839 2°47.401 114.1 12.8 116 19.1
2005-08-24 12:53:24 51°18.753 2°47.71 111.5 13 112 17
2005-08-24 12:54:25 51°18.666 2°48.027 113.7 13.1 112 14.8
2005-08-24 12:55:25 51°18.582 2°48.343 116.1 13.1 119 13
2005-08-24 12:56:25 51°18.5 2°48.664 112.5 13.1 113 11.3
2005-08-24 12:57:25 51°18.412 2°48.98 113.9 13.1 113 11.2
2005-08-24 12:58:24 51°18.327 2°49.291 113.1 13 115 11.7
2005-08-24 12:59:25 51°18.24 2°49.609 113.3 13 115 13.8
2005-08-24 13:00:24 51°18.15 2°49.922 115 13.5 118 14.6
2005-08-24 13:01:25 51°18.064 2°50.24 113.9 12.9 114 14.4
2005-08-24 13:02:24 51°17.978 2°50.555 114.4 13.1 116 13.5
2005-08-24 13:03:25 51°17.889 2°50.881 113.9 13.2 112 12.6
2005-08-24 13:04:25 51°17.806 2°51.199 109.6 13 109 11.2
2005-08-24 13:05:24 51°17.722 2°51.51 112.2 12.8 114 10.8
2005-08-24 13:06:24 51°17.64 2°51.832 113.4 13.1 117 10.9
2005-08-24 13:07:24 51°17.52 2°52.116 136.3 13.1 136 11.2
2005-08-24 13:08:25 51°17.339 2°52.324 149.9 13.6 149 11.1
2005-08-24 13:09:24 51°17.149 2°52.492 154.4 13.3 153 10.7
2005-08-24 13:10:24 51°16.944 2°52.62 163.9 13.3 164 10.7
2005-08-24 13:11:24 51°16.735 2°52.735 163.5 13.3 161 10.9
2005-08-24 13:12:24 51°16.527 2°52.86 161.4 13.2 159 12.5
2005-08-24 13:13:25 51°16.319 2°52.99 162 13.4 155 12.8
2005-08-24 13:14:24 51°16.12 2°53.119 162.5 13.1 157 12.7
2005-08-24 13:15:25 51°15.913 2°53.253 161.5 13.2 157 12.7
2005-08-24 13:16:24 51°15.712 2°53.38 162 13.3 156 12.1
2005-08-24 13:17:25 51°15.504 2°53.511 161.7 13 158 11.5
2005-08-24 13:18:25 51°15.3 2°53.584 171.2 12.8 168 11
2005-08-24 13:19:25 51°15.11 2°53.756 149.1 13.2 146 10.3
2005-08-24 13:20:25 51°14.942 2°53.981 140.8 13.2 138 9.8
2005-08-24 13:21:25 51°14.788 2°54.213 143.3 11.1 137 10.5
2005-08-24 13:22:25 51°14.662 2°54.401 139.9 11.8 132 11
2005-08-24 13:23:25 51°14.537 2°54.66 133.9 12.4 127 11.3
2005-08-24 13:24:25 51°14.417 2°54.931 131.4 12.5 124 11.5
2005-08-24 13:25:24 51°14.302 2°55.188 133 11.7 129 11.2
2005-08-24 13:26:26 51°14.187 2°55.367 147 8 143 -999
2005-08-24 13:27:26 51°14.074 2°55.462 158.3 7.9 154 -999
2005-08-24 13:28:26 51°13.942 2°55.556 159.6 9 156 -999
2005-08-24 13:29:26 51°13.808 2°55.658 154.3 8.9 151 -999
2005-08-24 13:30:26 51°13.71 2°55.794 133.7 6.5 131 -999
2005-08-24 13:31:26 51°13.659 2°55.908 129.5 4.9 124 -999
2005-08-24 13:32:26 51°13.619 2°56.008 117.6 4.1 118 -999
2005-08-24 13:33:26 51°13.602 2°56.083 116.2 2.2 112 -999